sensor_id;sensor_type;location;lat;lon;timestamp;pressure;altitude;pressure_sealevel;temperature;humidity
13013;BME280;22580;57.670;12.006;2023-10-08T00:00:05;101727.94;;;17.35;40.75
13013;BME280;22580;57.670;12.006;2023-10-08T00:02:47;101730.38;;;17.38;40.52
13013;BME280;22580;57.670;12.006;2023-10-08T00:05:15;101730.97;;;17.42;39.18
13013;BME280;22580;57.670;12.006;2023-10-08T00:07:42;101736.03;;;17.35;38.49
13013;BME280;22580;57.670;12.006;2023-10-08T00:10:09;101736.97;;;17.25;38.30
13013;BME280;22580;57.670;12.006;2023-10-08T00:12:37;101745.06;;;17.25;37.72
13013;BME280;22580;57.670;12.006;2023-10-08T00:15:05;101743.19;;;16.93;38.51
13013;BME280;22580;57.670;12.006;2023-10-08T00:17:37;101747.94;;;17.01;38.32
13013;BME280;22580;57.670;12.006;2023-10-08T00:20:07;101746.41;;;17.51;37.46
13013;BME280;22580;57.670;12.006;2023-10-08T00:22:34;101745.72;;;17.38;37.71
13013;BME280;22580;57.670;12.006;2023-10-08T00:25:01;101744.13;;;17.35;37.74
13013;BME280;22580;57.670;12.006;2023-10-08T00:27:36;101747.41;;;17.50;38.00
13013;BME280;22580;57.670;12.006;2023-10-08T00:30:05;101755.78;;;17.47;37.94
13013;BME280;22580;57.670;12.006;2023-10-08T00:32:43;101748.13;;;17.52;37.52
13013;BME280;22580;57.670;12.006;2023-10-08T00:35:11;101752.94;;;17.49;37.89
13013;BME280;22580;57.670;12.006;2023-10-08T00:37:39;101749.97;;;17.31;38.03
13013;BME280;22580;57.670;12.006;2023-10-08T00:40:07;101750.63;;;17.12;37.98
13013;BME280;22580;57.670;12.006;2023-10-08T00:42:47;101764.06;;;16.91;38.45
13013;BME280;22580;57.670;12.006;2023-10-08T00:45:17;101764.19;;;16.90;38.78
13013;BME280;22580;57.670;12.006;2023-10-08T00:47:47;101773.25;;;16.89;38.90
13013;BME280;22580;57.670;12.006;2023-10-08T00:50:17;101776.09;;;16.76;39.19
13013;BME280;22580;57.670;12.006;2023-10-08T00:52:48;101776.84;;;16.67;39.06
13013;BME280;22580;57.670;12.006;2023-10-08T00:55:27;101776.84;;;16.67;39.36
13013;BME280;22580;57.670;12.006;2023-10-08T00:57:57;101779.66;;;16.65;39.31
13013;BME280;22580;57.670;12.006;2023-10-08T01:00:35;101774.84;;;16.58;39.01
13013;BME280;22580;57.670;12.006;2023-10-08T01:03:07;101783.66;;;16.49;39.55
13013;BME280;22580;57.670;12.006;2023-10-08T01:05:42;101792.28;;;16.76;38.92
13013;BME280;22580;57.670;12.006;2023-10-08T01:08:13;101794.75;;;16.90;38.58
13013;BME280;22580;57.670;12.006;2023-10-08T01:10:45;101797.44;;;16.79;38.65
13013;BME280;22580;57.670;12.006;2023-10-08T01:13:12;101801.88;;;16.69;38.77
13013;BME280;22580;57.670;12.006;2023-10-08T01:15:45;101794.97;;;16.43;39.40
13013;BME280;22580;57.670;12.006;2023-10-08T01:18:15;101806.38;;;16.35;39.37
13013;BME280;22580;57.670;12.006;2023-10-08T01:21:00;101812.38;;;16.38;38.92
13013;BME280;22580;57.670;12.006;2023-10-08T01:23:35;101817.03;;;16.48;38.35
13013;BME280;22580;57.670;12.006;2023-10-08T01:26:04;101823.78;;;16.31;38.69
13013;BME280;22580;57.670;12.006;2023-10-08T01:28:38;101823.56;;;16.45;38.38
13013;BME280;22580;57.670;12.006;2023-10-08T01:31:09;101830.91;;;16.43;38.81
13013;BME280;22580;57.670;12.006;2023-10-08T01:33:38;101826.38;;;16.55;38.70
13013;BME280;22580;57.670;12.006;2023-10-08T01:36:14;101828.69;;;16.48;38.58
13013;BME280;22580;57.670;12.006;2023-10-08T01:38:43;101836.91;;;16.47;37.96
13013;BME280;22580;57.670;12.006;2023-10-08T01:41:14;101838.13;;;16.31;37.57
13013;BME280;22580;57.670;12.006;2023-10-08T01:43:45;101834.31;;;16.23;37.42
13013;BME280;22580;57.670;12.006;2023-10-08T01:46:12;101832.63;;;16.33;37.64
13013;BME280;22580;57.670;12.006;2023-10-08T01:48:43;101832.81;;;16.19;38.20
13013;BME280;22580;57.670;12.006;2023-10-08T01:51:11;101844.09;;;16.13;38.24
13013;BME280;22580;57.670;12.006;2023-10-08T01:53:52;101852.78;;;16.05;38.61
13013;BME280;22580;57.670;12.006;2023-10-08T01:56:20;101850.97;;;16.17;38.10
13013;BME280;22580;57.670;12.006;2023-10-08T01:58:48;101852.25;;;16.00;37.91
13013;BME280;22580;57.670;12.006;2023-10-08T02:01:19;101853.13;;;15.77;37.56
13013;BME280;22580;57.670;12.006;2023-10-08T02:03:46;101858.94;;;15.83;37.59
13013;BME280;22580;57.670;12.006;2023-10-08T02:06:14;101862.66;;;15.93;37.40
13013;BME280;22580;57.670;12.006;2023-10-08T02:08:41;101863.69;;;15.80;37.47
13013;BME280;22580;57.670;12.006;2023-10-08T02:11:11;101870.63;;;15.95;37.09
13013;BME280;22580;57.670;12.006;2023-10-08T02:13:37;101877.16;;;16.03;36.12
13013;BME280;22580;57.670;12.006;2023-10-08T02:16:04;101874.69;;;16.47;35.74
13013;BME280;22580;57.670;12.006;2023-10-08T02:18:32;101877.53;;;16.45;36.06
13013;BME280;22580;57.670;12.006;2023-10-08T02:21:00;101882.56;;;16.38;36.35
13013;BME280;22580;57.670;12.006;2023-10-08T02:23:28;101892.75;;;16.46;36.39
13013;BME280;22580;57.670;12.006;2023-10-08T02:25:54;101897.75;;;16.51;36.11
13013;BME280;22580;57.670;12.006;2023-10-08T02:28:24;101900.59;;;16.49;36.23
13013;BME280;22580;57.670;12.006;2023-10-08T02:30:52;101897.78;;;16.62;36.42
13013;BME280;22580;57.670;12.006;2023-10-08T02:33:20;101891.59;;;16.73;35.83
13013;BME280;22580;57.670;12.006;2023-10-08T02:35:47;101893.91;;;16.66;36.09
13013;BME280;22580;57.670;12.006;2023-10-08T02:38:17;101894.59;;;16.57;36.39
13013;BME280;22580;57.670;12.006;2023-10-08T02:40:44;101909.16;;;16.32;36.58
13013;BME280;22580;57.670;12.006;2023-10-08T02:43:12;101923.94;;;16.15;36.66
13013;BME280;22580;57.670;12.006;2023-10-08T02:45:42;101904.66;;;16.09;36.71
13013;BME280;22580;57.670;12.006;2023-10-08T02:48:13;101929.53;;;16.47;36.13
13013;BME280;22580;57.670;12.006;2023-10-08T02:50:42;101929.53;;;16.47;35.05
13013;BME280;22580;57.670;12.006;2023-10-08T02:53:11;101933.38;;;16.45;34.99
13013;BME280;22580;57.670;12.006;2023-10-08T02:55:43;101930.59;;;16.22;35.52
13013;BME280;22580;57.670;12.006;2023-10-08T02:58:12;101949.88;;;16.29;35.63
13013;BME280;22580;57.670;12.006;2023-10-08T03:00:42;101950.97;;;16.26;35.82
13013;BME280;22580;57.670;12.006;2023-10-08T03:03:09;101943.88;;;16.48;35.90
13013;BME280;22580;57.670;12.006;2023-10-08T03:05:43;101949.50;;;16.68;35.42
13013;BME280;22580;57.670;12.006;2023-10-08T03:08:12;101947.03;;;16.65;35.63
13013;BME280;22580;57.670;12.006;2023-10-08T03:10:39;101962.69;;;16.60;35.89
13013;BME280;22580;57.670;12.006;2023-10-08T03:13:07;101962.88;;;16.35;36.17
13013;BME280;22580;57.670;12.006;2023-10-08T03:15:36;101970.72;;;16.27;36.48
13013;BME280;22580;57.670;12.006;2023-10-08T03:18:13;101972.72;;;16.36;36.13
13013;BME280;22580;57.670;12.006;2023-10-08T03:20:41;101972.81;;;16.34;36.15
13013;BME280;22580;57.670;12.006;2023-10-08T03:23:12;101979.19;;;16.33;36.38
13013;BME280;22580;57.670;12.006;2023-10-08T03:25:51;101974.25;;;16.03;36.64
13013;BME280;22580;57.670;12.006;2023-10-08T03:28:22;101983.63;;;16.11;36.70
13013;BME280;22580;57.670;12.006;2023-10-08T03:30:51;101975.88;;;16.06;36.80
13013;BME280;22580;57.670;12.006;2023-10-08T03:33:30;101991.47;;;15.90;36.70
13013;BME280;22580;57.670;12.006;2023-10-08T03:36:00;101980.16;;;15.85;36.31
13013;BME280;22580;57.670;12.006;2023-10-08T03:38:36;101968.69;;;16.18;35.99
13013;BME280;22580;57.670;12.006;2023-10-08T03:41:17;101975.94;;;16.17;36.20
13013;BME280;22580;57.670;12.006;2023-10-08T03:43:46;101974.09;;;16.18;36.16
13013;BME280;22580;57.670;12.006;2023-10-08T03:46:29;101978.41;;;16.20;35.85
13013;BME280;22580;57.670;12.006;2023-10-08T03:48:58;101979.09;;;16.11;35.80
13013;BME280;22580;57.670;12.006;2023-10-08T03:51:30;101971.03;;;15.98;36.08
13013;BME280;22580;57.670;12.006;2023-10-08T03:54:05;101982.69;;;15.99;36.04
13013;BME280;22580;57.670;12.006;2023-10-08T03:56:43;101991.34;;;15.91;36.38
13013;BME280;22580;57.670;12.006;2023-10-08T03:59:14;101997.41;;;15.82;36.57
13013;BME280;22580;57.670;12.006;2023-10-08T04:01:46;101992.38;;;15.78;36.64
13013;BME280;22580;57.670;12.006;2023-10-08T04:04:16;101999.84;;;15.61;37.03
13013;BME280;22580;57.670;12.006;2023-10-08T04:06:43;101995.38;;;15.73;36.81
13013;BME280;22580;57.670;12.006;2023-10-08T04:09:15;101998.94;;;15.73;36.69
13013;BME280;22580;57.670;12.006;2023-10-08T04:11:51;102005.19;;;15.74;36.60
13013;BME280;22580;57.670;12.006;2023-10-08T04:14:19;102004.91;;;15.66;36.57
13013;BME280;22580;57.670;12.006;2023-10-08T04:16:47;102006.75;;;15.53;36.35
13013;BME280;22580;57.670;12.006;2023-10-08T04:19:19;102017.53;;;15.40;36.67
13013;BME280;22580;57.670;12.006;2023-10-08T04:21:50;102012.25;;;15.26;37.27
13013;BME280;22580;57.670;12.006;2023-10-08T04:24:24;102018.94;;;15.46;37.19
13013;BME280;22580;57.670;12.006;2023-10-08T04:27:00;102017.22;;;15.45;36.86
13013;BME280;22580;57.670;12.006;2023-10-08T04:29:29;102015.69;;;15.53;36.90
13013;BME280;22580;57.670;12.006;2023-10-08T04:31:59;102018.63;;;15.50;36.81
13013;BME280;22580;57.670;12.006;2023-10-08T04:34:35;102018.41;;;15.53;36.78
13013;BME280;22580;57.670;12.006;2023-10-08T04:37:02;102030.78;;;15.43;36.89
13013;BME280;22580;57.670;12.006;2023-10-08T04:39:38;102030.81;;;15.30;37.19
13013;BME280;22580;57.670;12.006;2023-10-08T04:42:14;102038.25;;;15.27;37.09
13013;BME280;22580;57.670;12.006;2023-10-08T04:44:52;102052.56;;;15.15;37.43
13013;BME280;22580;57.670;12.006;2023-10-08T04:47:19;102050.19;;;15.23;37.38
13013;BME280;22580;57.670;12.006;2023-10-08T04:49:58;102054.72;;;15.35;37.27
13013;BME280;22580;57.670;12.006;2023-10-08T04:52:25;102065.19;;;15.27;37.52
13013;BME280;22580;57.670;12.006;2023-10-08T04:54:53;102073.13;;;15.16;37.58
13013;BME280;22580;57.670;12.006;2023-10-08T04:57:20;102085.09;;;15.12;37.80
13013;BME280;22580;57.670;12.006;2023-10-08T04:59:51;102093.50;;;15.07;37.83
13013;BME280;22580;57.670;12.006;2023-10-08T05:02:26;102081.13;;;15.30;37.37
13013;BME280;22580;57.670;12.006;2023-10-08T05:05:16;102087.59;;;15.27;37.31
13013;BME280;22580;57.670;12.006;2023-10-08T05:07:49;102088.78;;;15.23;37.43
13013;BME280;22580;57.670;12.006;2023-10-08T05:10:43;102095.03;;;15.24;37.47
13013;BME280;22580;57.670;12.006;2023-10-08T05:13:26;102097.78;;;14.97;38.00
13013;BME280;22580;57.670;12.006;2023-10-08T05:15:58;102092.63;;;15.06;39.93
13013;BME280;22580;57.670;12.006;2023-10-08T05:18:37;102105.28;;;15.69;38.72
13013;BME280;22580;57.670;12.006;2023-10-08T05:21:23;102102.09;;;16.14;38.94
13013;BME280;22580;57.670;12.006;2023-10-08T05:24:16;102108.25;;;16.03;37.29
13013;BME280;22580;57.670;12.006;2023-10-08T05:26:53;102114.94;;;16.10;36.95
13013;BME280;22580;57.670;12.006;2023-10-08T05:29:40;102112.56;;;16.05;37.21
13013;BME280;22580;57.670;12.006;2023-10-08T05:32:36;102110.53;;;15.96;38.75
13013;BME280;22580;57.670;12.006;2023-10-08T05:35:31;102119.63;;;15.83;37.39
13013;BME280;22580;57.670;12.006;2023-10-08T05:38:23;102120.03;;;15.89;37.51
13013;BME280;22580;57.670;12.006;2023-10-08T05:41:04;102132.09;;;16.09;37.23
13013;BME280;22580;57.670;12.006;2023-10-08T05:43:31;102118.34;;;16.25;38.53
13013;BME280;22580;57.670;12.006;2023-10-08T05:46:16;102136.97;;;16.04;36.84
13013;BME280;22580;57.670;12.006;2023-10-08T05:49:00;102134.81;;;15.84;36.89
13013;BME280;22580;57.670;12.006;2023-10-08T05:51:29;102148.53;;;15.81;37.08
13013;BME280;22580;57.670;12.006;2023-10-08T05:54:13;102146.03;;;16.03;36.73
13013;BME280;22580;57.670;12.006;2023-10-08T05:57:03;102139.50;;;16.31;36.42
13013;BME280;22580;57.670;12.006;2023-10-08T05:59:50;102139.72;;;16.52;36.25
13013;BME280;22580;57.670;12.006;2023-10-08T06:02:34;102139.38;;;16.32;36.51
13013;BME280;22580;57.670;12.006;2023-10-08T06:05:27;102146.22;;;16.25;36.66
13013;BME280;22580;57.670;12.006;2023-10-08T06:07:58;102141.03;;;16.22;36.56
13013;BME280;22580;57.670;12.006;2023-10-08T06:10:38;102139.38;;;16.32;36.42
13013;BME280;22580;57.670;12.006;2023-10-08T06:13:22;102145.97;;;16.28;36.35
13013;BME280;22580;57.670;12.006;2023-10-08T06:15:57;102146.50;;;16.57;37.78
13013;BME280;22580;57.670;12.006;2023-10-08T06:18:34;102154.00;;;16.17;37.85
13013;BME280;22580;57.670;12.006;2023-10-08T06:21:04;102152.81;;;16.21;37.41
13013;BME280;22580;57.670;12.006;2023-10-08T06:23:36;102147.59;;;16.31;37.25
13013;BME280;22580;57.670;12.006;2023-10-08T06:26:05;102145.31;;;16.37;37.09
13013;BME280;22580;57.670;12.006;2023-10-08T06:28:41;102156.09;;;16.37;37.12
13013;BME280;22580;57.670;12.006;2023-10-08T06:31:09;102171.38;;;16.13;37.56
13013;BME280;22580;57.670;12.006;2023-10-08T06:33:42;102172.97;;;16.28;37.52
13013;BME280;22580;57.670;12.006;2023-10-08T06:36:10;102173.50;;;16.57;37.50
13013;BME280;22580;57.670;12.006;2023-10-08T06:38:42;102172.81;;;16.79;36.98
13013;BME280;22580;57.670;12.006;2023-10-08T06:41:11;102180.19;;;16.77;37.86
13013;BME280;22580;57.670;12.006;2023-10-08T06:43:44;102171.16;;;16.89;37.20
13013;BME280;22580;57.670;12.006;2023-10-08T06:46:13;102175.69;;;16.52;37.34
13013;BME280;22580;57.670;12.006;2023-10-08T06:48:41;102175.69;;;16.65;37.57
13013;BME280;22580;57.670;12.006;2023-10-08T06:51:09;102180.22;;;16.64;37.23
13013;BME280;22580;57.670;12.006;2023-10-08T06:53:40;102180.94;;;17.03;36.91
13013;BME280;22580;57.670;12.006;2023-10-08T06:56:08;102182.13;;;16.75;37.08
13013;BME280;22580;57.670;12.006;2023-10-08T06:58:39;102187.34;;;16.53;37.26
13013;BME280;22580;57.670;12.006;2023-10-08T07:01:11;102194.13;;;16.58;37.51
13013;BME280;22580;57.670;12.006;2023-10-08T07:03:38;102188.81;;;16.33;37.91
13013;BME280;22580;57.670;12.006;2023-10-08T07:06:06;102185.03;;;16.35;38.03
13013;BME280;22580;57.670;12.006;2023-10-08T07:08:42;102187.53;;;16.38;37.91
13013;BME280;22580;57.670;12.006;2023-10-08T07:11:12;102192.31;;;16.22;38.39
13013;BME280;22580;57.670;12.006;2023-10-08T07:13:41;102195.84;;;16.35;38.41
13013;BME280;22580;57.670;12.006;2023-10-08T07:16:08;102199.50;;;16.34;38.45
13013;BME280;22580;57.670;12.006;2023-10-08T07:18:37;102195.72;;;16.37;38.51
13013;BME280;22580;57.670;12.006;2023-10-08T07:21:03;102205.72;;;16.48;38.49
13013;BME280;22580;57.670;12.006;2023-10-08T07:23:37;102204.75;;;16.49;38.09
13013;BME280;22580;57.670;12.006;2023-10-08T07:26:21;102210.00;;;16.76;37.92
13013;BME280;22580;57.670;12.006;2023-10-08T07:28:51;102210.47;;;16.93;37.92
13013;BME280;22580;57.670;12.006;2023-10-08T07:31:20;102211.25;;;16.83;37.80
13013;BME280;22580;57.670;12.006;2023-10-08T07:33:48;102219.38;;;17.07;37.35
13013;BME280;22580;57.670;12.006;2023-10-08T07:36:22;102217.59;;;17.53;37.36
13013;BME280;22580;57.670;12.006;2023-10-08T07:38:50;102196.22;;;17.61;36.28
13013;BME280;22580;57.670;12.006;2023-10-08T07:41:17;102228.25;;;17.67;35.38
13013;BME280;22580;57.670;12.006;2023-10-08T07:43:46;102230.72;;;17.71;35.10
13013;BME280;22580;57.670;12.006;2023-10-08T07:46:20;102224.59;;;17.80;34.80
13013;BME280;22580;57.670;12.006;2023-10-08T07:48:46;102222.22;;;17.75;34.45
13013;BME280;22580;57.670;12.006;2023-10-08T07:51:15;102230.13;;;17.89;34.33
13013;BME280;22580;57.670;12.006;2023-10-08T07:53:47;102234.59;;;18.01;34.35
13013;BME280;22580;57.670;12.006;2023-10-08T07:56:14;102250.19;;;18.20;35.41
13013;BME280;22580;57.670;12.006;2023-10-08T07:58:43;102237.91;;;18.39;34.17
13013;BME280;22580;57.670;12.006;2023-10-08T08:01:10;102231.50;;;18.51;33.58
13013;BME280;22580;57.670;12.006;2023-10-08T08:03:41;102235.81;;;18.31;33.50
13013;BME280;22580;57.670;12.006;2023-10-08T08:06:10;102245.81;;;18.19;33.39
13013;BME280;22580;57.670;12.006;2023-10-08T08:08:39;102239.75;;;18.27;33.23
13013;BME280;22580;57.670;12.006;2023-10-08T08:11:06;102235.81;;;18.09;33.29
13013;BME280;22580;57.670;12.006;2023-10-08T08:13:37;102244.06;;;18.41;33.09
13013;BME280;22580;57.670;12.006;2023-10-08T08:16:07;102233.22;;;18.29;32.61
13013;BME280;22580;57.670;12.006;2023-10-08T08:18:45;102251.31;;;18.51;32.52
13013;BME280;22580;57.670;12.006;2023-10-08T08:21:12;102252.34;;;18.61;31.99
13013;BME280;22580;57.670;12.006;2023-10-08T08:23:42;102261.03;;;18.98;31.76
13013;BME280;22580;57.670;12.006;2023-10-08T08:26:16;102263.75;;;18.54;31.53
13013;BME280;22580;57.670;12.006;2023-10-08T08:28:54;102267.69;;;18.83;31.44
13013;BME280;22580;57.670;12.006;2023-10-08T08:31:22;102265.97;;;18.82;30.40
13013;BME280;22580;57.670;12.006;2023-10-08T08:33:52;102271.25;;;18.95;30.78
13013;BME280;22580;57.670;12.006;2023-10-08T08:36:23;102285.94;;;19.24;30.42
13013;BME280;22580;57.670;12.006;2023-10-08T08:38:50;102286.72;;;19.47;31.48
13013;BME280;22580;57.670;12.006;2023-10-08T08:41:18;102280.91;;;19.63;29.62
13013;BME280;22580;57.670;12.006;2023-10-08T08:43:49;102285.34;;;19.21;31.80
13013;BME280;22580;57.670;12.006;2023-10-08T08:46:26;102296.06;;;19.66;30.57
13013;BME280;22580;57.670;12.006;2023-10-08T08:49:01;102301.47;;;20.28;32.64
13013;BME280;22580;57.670;12.006;2023-10-08T08:51:30;102290.22;;;20.33;29.52
13013;BME280;22580;57.670;12.006;2023-10-08T08:53:57;102288.31;;;20.44;30.39
13013;BME280;22580;57.670;12.006;2023-10-08T08:56:26;102286.78;;;21.11;31.76
13013;BME280;22580;57.670;12.006;2023-10-08T08:58:53;102290.00;;;21.25;30.33
13013;BME280;22580;57.670;12.006;2023-10-08T09:01:21;102292.06;;;21.03;28.34
13013;BME280;22580;57.670;12.006;2023-10-08T09:03:48;102288.94;;;21.07;29.72
13013;BME280;22580;57.670;12.006;2023-10-08T09:06:17;102300.66;;;20.58;27.94
13013;BME280;22580;57.670;12.006;2023-10-08T09:08:46;102293.16;;;20.41;27.27
13013;BME280;22580;57.670;12.006;2023-10-08T09:11:17;102294.34;;;19.64;27.95
13013;BME280;22580;57.670;12.006;2023-10-08T09:13:44;102300.16;;;20.02;27.46
13013;BME280;22580;57.670;12.006;2023-10-08T09:16:13;102306.44;;;20.23;27.70
13013;BME280;22580;57.670;12.006;2023-10-08T09:18:42;102291.16;;;20.73;27.94
13013;BME280;22580;57.670;12.006;2023-10-08T09:21:14;102284.06;;;20.10;27.97
13013;BME280;22580;57.670;12.006;2023-10-08T09:23:43;102304.06;;;20.29;27.87
13013;BME280;22580;57.670;12.006;2023-10-08T09:26:16;102311.16;;;20.42;27.99
13013;BME280;22580;57.670;12.006;2023-10-08T09:28:45;102295.63;;;20.93;30.52
13013;BME280;22580;57.670;12.006;2023-10-08T09:31:14;102308.34;;;21.33;28.70
13013;BME280;22580;57.670;12.006;2023-10-08T09:33:43;102309.97;;;21.05;27.52
13013;BME280;22580;57.670;12.006;2023-10-08T09:36:20;102308.91;;;20.87;26.33
13013;BME280;22580;57.670;12.006;2023-10-08T09:38:58;102306.50;;;20.93;26.99
13013;BME280;22580;57.670;12.006;2023-10-08T09:41:27;102297.19;;;20.46;27.05
13013;BME280;22580;57.670;12.006;2023-10-08T09:43:56;102314.16;;;20.39;27.02
13013;BME280;22580;57.670;12.006;2023-10-08T09:46:29;102302.88;;;20.02;27.39
13013;BME280;22580;57.670;12.006;2023-10-08T09:48:59;102307.47;;;20.43;27.05
13013;BME280;22580;57.670;12.006;2023-10-08T09:51:28;102314.00;;;20.19;26.74
13013;BME280;22580;57.670;12.006;2023-10-08T09:54:05;102309.03;;;20.76;25.62
13013;BME280;22580;57.670;12.006;2023-10-08T09:56:36;102323.16;;;20.39;26.11
13013;BME280;22580;57.670;12.006;2023-10-08T09:59:05;102321.69;;;20.56;25.48
13013;BME280;22580;57.670;12.006;2023-10-08T10:01:33;102319.44;;;20.40;25.91
13013;BME280;22580;57.670;12.006;2023-10-08T10:04:00;102315.25;;;21.07;26.69
13013;BME280;22580;57.670;12.006;2023-10-08T10:06:28;102317.00;;;21.17;26.30
13013;BME280;22580;57.670;12.006;2023-10-08T10:08:56;102321.53;;;20.57;25.88
13013;BME280;22580;57.670;12.006;2023-10-08T10:11:28;102313.63;;;20.85;25.33
13013;BME280;22580;57.670;12.006;2023-10-08T10:13:58;102311.50;;;21.48;27.50
13013;BME280;22580;57.670;12.006;2023-10-08T10:16:26;102311.63;;;21.75;26.14
13013;BME280;22580;57.670;12.006;2023-10-08T10:18:56;102319.38;;;20.91;25.73
13013;BME280;22580;57.670;12.006;2023-10-08T10:21:29;102313.91;;;21.32;25.51
13013;BME280;22580;57.670;12.006;2023-10-08T10:23:57;102311.22;;;21.51;25.26
13013;BME280;22580;57.670;12.006;2023-10-08T10:26:29;102305.50;;;21.44;24.91
13013;BME280;22580;57.670;12.006;2023-10-08T10:29:21;102309.53;;;21.10;24.95
13013;BME280;22580;57.670;12.006;2023-10-08T10:31:52;102317.50;;;21.71;24.71
13013;BME280;22580;57.670;12.006;2023-10-08T10:34:22;102305.03;;;21.78;24.49
13013;BME280;22580;57.670;12.006;2023-10-08T10:36:53;102298.44;;;21.80;25.55
13013;BME280;22580;57.670;12.006;2023-10-08T10:39:25;102310.25;;;22.47;26.06
13013;BME280;22580;57.670;12.006;2023-10-08T10:41:59;102306.13;;;22.33;24.42
13013;BME280;22580;57.670;12.006;2023-10-08T10:44:32;102304.03;;;22.17;24.68
13013;BME280;22580;57.670;12.006;2023-10-08T10:47:02;102293.59;;;21.74;23.89
13013;BME280;22580;57.670;12.006;2023-10-08T10:49:48;102285.13;;;21.87;23.49
13013;BME280;22580;57.670;12.006;2023-10-08T10:52:20;102307.47;;;21.90;23.29
13013;BME280;22580;57.670;12.006;2023-10-08T10:54:59;102293.94;;;22.37;22.59
13013;BME280;22580;57.670;12.006;2023-10-08T10:57:28;102293.31;;;22.53;23.16
13013;BME280;22580;57.670;12.006;2023-10-08T11:00:04;102283.44;;;22.70;22.90
13013;BME280;22580;57.670;12.006;2023-10-08T11:02:56;102282.06;;;23.20;24.18
13013;BME280;22580;57.670;12.006;2023-10-08T11:05:28;102272.41;;;22.71;22.37
13013;BME280;22580;57.670;12.006;2023-10-08T11:07:57;102270.28;;;23.20;23.02
13013;BME280;22580;57.670;12.006;2023-10-08T11:10:30;102285.84;;;23.45;24.33
13013;BME280;22580;57.670;12.006;2023-10-08T11:12:59;102275.66;;;23.83;23.63
13013;BME280;22580;57.670;12.006;2023-10-08T11:15:27;102293.44;;;23.51;21.16
13013;BME280;22580;57.670;12.006;2023-10-08T11:18:07;102290.56;;;23.35;21.63
13013;BME280;22580;57.670;12.006;2023-10-08T11:20:34;102296.63;;;23.47;21.48
13013;BME280;22580;57.670;12.006;2023-10-08T11:23:05;102304.50;;;23.50;20.75
13013;BME280;22580;57.670;12.006;2023-10-08T11:25:55;102286.75;;;23.64;20.46
13013;BME280;22580;57.670;12.006;2023-10-08T11:28:27;102299.03;;;24.03;20.13
13013;BME280;22580;57.670;12.006;2023-10-08T11:30:55;102299.34;;;24.00;20.28
13013;BME280;22580;57.670;12.006;2023-10-08T11:33:24;102296.94;;;24.23;20.90
13013;BME280;22580;57.670;12.006;2023-10-08T11:36:00;102301.72;;;24.47;20.89
13013;BME280;22580;57.670;12.006;2023-10-08T11:38:47;102304.94;;;24.76;20.24
13013;BME280;22580;57.670;12.006;2023-10-08T11:41:16;102288.22;;;25.30;22.37
13013;BME280;22580;57.670;12.006;2023-10-08T11:43:57;102285.47;;;25.30;19.94
13013;BME280;22580;57.670;12.006;2023-10-08T11:46:27;102282.19;;;25.18;20.66
13013;BME280;22580;57.670;12.006;2023-10-08T11:48:58;102280.06;;;24.96;19.77
13013;BME280;22580;57.670;12.006;2023-10-08T11:51:30;102273.34;;;25.48;20.93
13013;BME280;22580;57.670;12.006;2023-10-08T11:53:58;102270.97;;;25.62;20.67
13013;BME280;22580;57.670;12.006;2023-10-08T11:56:25;102277.59;;;25.10;19.04
13013;BME280;22580;57.670;12.006;2023-10-08T11:58:53;102295.16;;;25.00;20.25
13013;BME280;22580;57.670;12.006;2023-10-08T12:01:24;102278.97;;;24.80;19.34
13013;BME280;22580;57.670;12.006;2023-10-08T12:03:52;102283.69;;;24.96;19.08
13013;BME280;22580;57.670;12.006;2023-10-08T12:06:25;102272.31;;;25.41;19.03
13013;BME280;22580;57.670;12.006;2023-10-08T12:09:05;102250.53;;;25.15;19.42
13013;BME280;22580;57.670;12.006;2023-10-08T12:11:38;102256.97;;;25.81;20.27
13013;BME280;22580;57.670;12.006;2023-10-08T12:14:06;102263.72;;;26.18;19.77
13013;BME280;22580;57.670;12.006;2023-10-08T12:16:35;102268.59;;;25.83;18.76
13013;BME280;22580;57.670;12.006;2023-10-08T12:19:05;102281.53;;;26.22;19.76
13013;BME280;22580;57.670;12.006;2023-10-08T12:21:41;102276.03;;;26.46;19.68
13013;BME280;22580;57.670;12.006;2023-10-08T12:24:13;102276.66;;;25.93;19.58
13013;BME280;22580;57.670;12.006;2023-10-08T12:26:40;102282.22;;;26.40;19.83
13013;BME280;22580;57.670;12.006;2023-10-08T12:29:11;102278.97;;;26.20;18.95
13013;BME280;22580;57.670;12.006;2023-10-08T12:31:41;102272.06;;;26.57;19.75
13013;BME280;22580;57.670;12.006;2023-10-08T12:34:12;102265.50;;;25.86;18.44
13013;BME280;22580;57.670;12.006;2023-10-08T12:36:40;102269.53;;;26.23;19.46
13013;BME280;22580;57.670;12.006;2023-10-08T12:39:07;102274.19;;;26.14;18.82
13013;BME280;22580;57.670;12.006;2023-10-08T12:41:37;102267.53;;;25.43;18.30
13013;BME280;22580;57.670;12.006;2023-10-08T12:44:04;102273.91;;;25.76;18.48
13013;BME280;22580;57.670;12.006;2023-10-08T12:46:34;102269.63;;;25.74;17.81
13013;BME280;22580;57.670;12.006;2023-10-08T12:49:03;102267.53;;;26.00;19.26
13013;BME280;22580;57.670;12.006;2023-10-08T12:51:30;102261.06;;;25.77;18.18
13013;BME280;22580;57.670;12.006;2023-10-08T12:53:59;102266.19;;;25.88;18.49
13013;BME280;22580;57.670;12.006;2023-10-08T12:56:33;102262.75;;;25.62;19.88
13013;BME280;22580;57.670;12.006;2023-10-08T12:59:05;102258.97;;;25.55;18.21
13013;BME280;22580;57.670;12.006;2023-10-08T13:01:33;102261.19;;;25.35;19.70
13013;BME280;22580;57.670;12.006;2023-10-08T13:04:03;102255.63;;;24.94;18.91